Data for 01/22/2009

Time Sea-Level Adjusted Pressure Absolute Pressure Temperature Relative Humidity Dew Point   
(mb) (inHg) (mb) (inHg) (C) (F) (%) (C) (F)
00:05 1016 30 845 24.95 -0.1 31.9 44 -11 12.2
00:10 1016 30 845 24.95 0.7 33.2 43 -10.5 13.1
00:15 1016 30 845 24.95 -0.1 31.9 43 -11.2 11.9
00:20 1016 30 845 24.95 0.5 32.9 41 -11.4 11.5
00:25 1016 30 845 24.95 0.9 33.7 40 -11.3 11.6
00:30 1016 30 845 24.95 1 33.8 40 -11.2 11.9
00:35 1016 30 845 24.95 0.6 33.1 40 -11.4 11.5
00:40 1016 30 845 24.95 0.7 33.3 42 -10.8 12.5
00:45 1016 30 845 24.95 0.3 32.5 43 -10.9 12.4
00:50 1016 30 845 24.95 0.2 32.3 43 -11.1 12
00:55 1016 30 845 24.95 0.1 32.1 42 -11.4 11.5
01:00 1016 30 845 24.95 0.2 32.4 43 -11 12.2
01:05 1016 30 845 24.95 0.1 32.2 44 -10.6 12.9
01:10 1016 30 845 24.95 -0.2 31.6 44 -11.1 12.1
01:15 1016 30 845 24.95 -0.2 31.6 43 -11.2 11.8
01:20 1016 30 845 24.95 0.4 32.7 39 -11.9 10.6
01:25 1016 30 845 24.95 0.9 33.7 39 -11.6 11
01:30 1016 30 845 24.95 0.7 33.2 42 -10.9 12.3
01:35 1016 30 845 24.95 0.3 32.5 44 -10.7 12.7
01:40 1016 30 845 24.95 -0.4 31.3 47 -10.5 13.1
01:45 1016 30 845 24.95 -0.8 30.6 47 -10.7 12.7
01:50 1016 30 845 24.95 -0.8 30.6 45 -11.3 11.6
01:55 1016 30 845 24.95 -0.3 31.5 46 -10.6 12.8
02:00 1016 30 845 24.95 -0.5 31.1 46 -10.7 12.8
02:05 1016 30 845 24.95 -0.5 31.2 43 -11.6 11.1
02:10 1015 29.97 845 24.95 0 32.1 43 -11.3 11.7
02:15 1015 29.97 845 24.95 -0.1 31.8 43 -11.2 11.9
02:20 1015 29.97 845 24.95 -0.1 31.9 42 -11.4 11.4
02:25 1015 29.97 845 24.95 0.1 32.2 44 -10.7 12.7
02:30 1015 29.97 845 24.95 -0.3 31.5 46 -10.6 13
02:35 1015 29.97 845 24.95 -0.2 31.6 43 -11.2 11.8
02:40 1015 29.97 845 24.95 -0.1 31.9 44 -10.9 12.4
02:45 1015 29.97 845 24.95 -0.4 31.3 46 -10.7 12.7
02:50 1015 29.97 845 24.95 -0.4 31.2 45 -11.1 12.1
02:55 1015 29.97 844 24.92 -0.5 31.1 44 -11.2 11.8
03:00 1015 29.97 844 24.92 0.1 32.1 42 -11.5 11.3
03:05 1015 29.97 844 24.92 0.4 32.7 42 -11 12.2
03:10 1015 29.97 844 24.92 -0.1 31.8 43 -11.1 11.9
03:15 1015 29.97 844 24.92 -0.2 31.7 51 -9.1 15.6
03:20 1015 29.97 844 24.92 -1.3 29.7 50 -10.4 13.3
03:25 1015 29.97 844 24.92 -0.2 31.6 44 -11.2 11.8
03:30 1015 29.97 844 24.92 0.5 32.9 43 -10.8 12.6
03:35 1015 29.97 844 24.92 0.3 32.6 43 -10.8 12.5
03:40 1015 29.97 844 24.92 0.2 32.4 46 -10.2 13.7
03:45 1015 29.97 844 24.92 0 32 44 -10.7 12.7
03:50 1015 29.97 844 24.92 0.3 32.6 46 -10.1 13.8
03:55 1015 29.97 844 24.92 0 32 48 -9.7 14.6
04:00 1015 29.97 844 24.92 -0.2 31.7 50 -9.5 14.9
04:05 1015 29.97 844 24.92 -0.2 31.6 49 -9.6 14.7
04:10 1015 29.97 844 24.92 -0.3 31.5 51 -9.3 15.3
04:15 1015 29.97 844 24.92 -0.4 31.3 52 -9.1 15.6
04:20 1015 29.97 844 24.92 -0.6 30.9 53 -9 15.8
04:25 1015 29.97 844 24.92 -0.8 30.5 54 -9 15.9
04:30 1015 29.97 844 24.92 -0.9 30.3 54 -9.1 15.6
04:35 1015 29.97 844 24.92 -0.8 30.5 54 -9.1 15.7
04:40 1015 29.97 844 24.92 -0.3 31.5 51 -9.1 15.5
04:45 1015 29.97 844 24.92 0.1 32.2 48 -9.7 14.6
04:50 1015 29.97 844 24.92 0.5 32.8 48 -9.3 15.2
04:55 1015 29.97 844 24.92 0.5 32.9 47 -9.4 15
05:00 1015 29.97 844 24.92 0.6 33.2 48 -9.1 15.7
05:05 1015 29.97 844 24.92 0.4 32.7 50 -8.9 15.9
05:10 1015 29.97 844 24.92 0.4 32.7 50 -8.8 16.1
05:15 1015 29.97 844 24.92 0.4 32.7 51 -8.7 16.4
05:20 1015 29.97 844 24.92 0.3 32.6 50 -8.8 16.1
05:25 1015 29.97 844 24.92 0.4 32.8 48 -9.3 15.2
05:30 1015 29.97 844 24.92 0.7 33.3 50 -8.5 16.7
05:35 1015 29.97 844 24.92 0.5 32.9 48 -9.3 15.3
05:40 1015 29.97 844 24.92 0.6 33.1 47 -9.5 14.9
05:45 1015 29.97 844 24.92 0.7 33.3 49 -8.7 16.3
05:50 1015 29.97 844 24.92 0.3 32.6 50 -8.8 16.1
05:55 1015 29.97 844 24.92 0.4 32.8 48 -9.3 15.2
06:00 1015 29.97 844 24.92 0.5 33 50 -8.8 16.1
06:05 1015 29.97 844 24.92 0.7 33.2 42 -10.8 12.6
06:10 1015 29.97 844 24.92 1.5 34.7 42 -10.1 13.8
06:15 1015 29.97 844 24.92 1.1 34 46 -9.3 15.3
06:20 1015 29.97 844 24.92 0.8 33.4 47 -9.3 15.2
06:25 1015 29.97 844 24.92 0.4 32.8 48 -9.2 15.4
06:30 1015 29.97 844 24.92 0.5 32.9 45 -10 14
06:35 1015 29.97 844 24.92 1.1 33.9 41 -10.7 12.7
06:40 1015 29.97 844 24.92 1.8 35.3 43 -9.6 14.7
06:45 1015 29.97 844 24.92 1.3 34.3 47 -8.9 16
06:50 1015 29.97 844 24.92 0.4 32.8 49 -9 15.8
06:55 1015 29.97 844 24.92 0.1 32.2 49 -9.5 15
07:00 1015 29.97 844 24.92 0.3 32.6 46 -9.9 14.2
07:05 1015 29.97 844 24.92 0.8 33.4 45 -9.8 14.4
07:10 1015 29.97 844 24.92 0.9 33.6 44 -10 14
07:15 1015 29.97 844 24.92 1 33.8 42 -10.4 13.2
07:20 1015 29.97 844 24.92 1.1 34 44 -10 14.1
07:25 1015 29.97 844 24.92 1.1 33.9 45 -9.6 14.7
07:30 1015 29.97 844 24.92 1 33.7 47 -9.2 15.4
07:35 1015 29.97 844 24.92 0.9 33.6 46 -9.6 14.7
07:40 1015 29.97 844 24.92 0.7 33.2 50 -8.5 16.7
07:45 1015 29.97 844 24.92 0.6 33 53 -8 17.7
07:50 1015 29.97 844 24.92 0.5 32.9 53 -8 17.5
07:55 1015 29.97 844 24.92 0.6 33.2 49 -9 15.8
08:00 1015 29.97 844 24.92 1.2 34.2 45 -9.3 15.2
08:05 1015 29.97 845 24.95 1.5 34.7 43 -9.8 14.3
08:10 1015 29.97 845 24.95 1.9 35.4 42 -9.7 14.5
08:15 1015 29.97 845 24.95 1.9 35.4 44 -9.2 15.4
08:20 1015 29.97 845 24.95 1.8 35.2 45 -8.8 16.1
08:25 1015 29.97 845 24.95 1.8 35.2 47 -8.5 16.7
08:30 1015 29.97 845 24.95 1.7 35.1 44 -9.1 15.5
08:35 1016 30 845 24.95 1.9 35.3 44 -9.2 15.5
08:40 1016 30 845 24.95 2 35.6 44 -9.1 15.7
08:45 1016 30 845 24.95 2.2 35.9 41 -9.6 14.7
08:50 1016 30 845 24.95 2.3 36.2 43 -9 15.8
08:55 1016 30 845 24.95 2.3 36.1 44 -8.7 16.3
09:00 1016 30 845 24.95 2.3 36.1 43 -9.2 15.5
09:05 1016 30 845 24.95 2.3 36.2 42 -9.4 15.1
09:10 1016 30 845 24.95 2.4 36.4 41 -9.5 15
09:15 1016 30 845 24.95 2.5 36.5 39 -10 14
09:20 1016 30 846 24.98 2.7 36.8 39 -9.8 14.3
09:25 1016 30 846 24.98 2.6 36.8 39 -10.1 13.9
09:30 1016 30 846 24.98 2.7 36.9 39 -10 14.1
09:35 1017 30.03 846 24.98 2.7 36.9 41 -9.2 15.4
09:40 1017 30.03 846 24.98 2.3 36.2 39 -10.2 13.6
09:45 1017 30.03 846 24.98 2.6 36.6 41 -9.5 15
09:50 1017 30.03 846 24.98 2.4 36.4 46 -8.1 17.4
09:55 1017 30.03 846 24.98 2.3 36.2 41 -9.6 14.6
10:00 1017 30.03 846 24.98 2.8 37.1 39 -9.7 14.5
10:05 1017 30.03 846 24.98 3.1 37.7 42 -8.7 16.3
10:10 1017 30.03 846 24.98 2.7 36.8 38 -10.2 13.6
10:15 1017 30.03 846 24.98 2.7 36.8 38 -10.4 13.3
10:20 1017 30.03 846 24.98 3.5 38.3 38 -9.6 14.8
10:25 1017 30.03 846 24.98 3.5 38.4 42 -8.3 17
10:30 1017 30.03 846 24.98 2.9 37.3 39 -9.6 14.7
10:35 1017 30.03 846 24.98 3.2 37.8 38 -9.6 14.7
10:40 1017 30.03 846 24.98 3.7 38.6 37 -9.6 14.7
10:45 1017 30.03 846 24.98 3.4 38 40 -9.1 15.6
10:50 1017 30.03 847 25.01 2.9 37.2 42 -9 15.9
10:55 1017 30.03 847 25.01 3.2 37.8 42 -8.4 16.8
11:00 1017 30.03 847 25.01 3.7 38.6 44 -7.5 18.5
11:05 1017 30.03 846 24.98 4.1 39.4 45 -6.8 19.8
11:10 1017 30.03 847 25.01 4.3 39.7 47 -6 21.1
11:15 1017 30.03 847 25.01 4.4 39.9 48 -5.7 21.8
11:20 1017 30.03 847 25.01 4.6 40.3 50 -5 23
11:25 1017 30.03 847 25.01 4.5 40.1 52 -4.5 23.9
11:30 1017 30.03 847 25.01 3.9 39.1 56 -4 24.7
11:35 1017 30.03 847 25.01 3.3 37.9 58 -4.2 24.4
11:40 1017 30.03 847 25.01 3.3 38 58 -4.2 24.4
11:45 1017 30.03 846 24.98 3.7 38.6 56 -4.3 24.3
11:50 1017 30.03 846 24.98 4.2 39.6 54 -4.2 24.4
11:55 1017 30.03 846 24.98 4.6 40.3 53 -4.1 24.7
12:00 1017 30.03 846 24.98 4.4 39.9 56 -3.7 25.4
12:05 1017 30.03 846 24.98 4.2 39.6 56 -3.7 25.4
12:10 1017 30.03 846 24.98 4.6 40.4 56 -3.4 25.8
12:15 1017 30.03 846 24.98 4.7 40.4 56 -3.2 26.2
12:20 1017 30.03 846 24.98 4.7 40.5 58 -2.9 26.7
12:25 1017 30.03 846 24.98 4.7 40.4 57 -3 26.5
12:30 1017 30.03 846 24.98 4.9 40.9 57 -2.9 26.8
12:35 1017 30.03 846 24.98 5.1 41.1 57 -2.8 26.9
12:40 1017 30.03 846 24.98 5.3 41.5 56 -2.7 27.1
12:45 1017 30.03 846 24.98 5.3 41.5 56 -2.7 27.2
12:50 1017 30.03 846 24.98 5.2 41.3 58 -2.5 27.4
12:55 1017 30.03 846 24.98 5.2 41.4 58 -2.4 27.7
13:00 1017 30.03 846 24.98 5 41.1 59 -2.3 27.9
13:05 1016 30 846 24.98 5 41.1 58 -2.6 27.4
13:10 1016 30 846 24.98 5.1 41.1 59 -2.3 27.8
13:15 1016 30 846 24.98 5 40.9 58 -2.5 27.5
13:20 1016 30 846 24.98 4.8 40.6 60 -2.3 27.8
13:25 1016 30 845 24.95 4.5 40.1 60 -2.5 27.5
13:30 1016 30 845 24.95 4.6 40.3 60 -2.5 27.5
13:35 1016 30 845 24.95 4.7 40.5 59 -2.5 27.5
13:40 1016 30 845 24.95 4.7 40.5 60 -2.4 27.7
13:45 1016 30 845 24.95 4.5 40.1 60 -2.6 27.3
13:50 1016 30 845 24.95 4.4 39.9 61 -2.4 27.6
13:55 1016 30 845 24.95 4.3 39.7 61 -2.6 27.3
14:00 1016 30 845 24.95 3.8 38.9 63 -2.6 27.4
14:05 1016 30 845 24.95 3.6 38.4 64 -2.5 27.5
14:10 1016 30 845 24.95 3.7 38.6 64 -2.5 27.5
14:15 1016 30 845 24.95 4.3 39.7 62 -2.5 27.5
14:20 1016 30 845 24.95 4.6 40.2 60 -2.5 27.6
14:25 1016 30 845 24.95 4.1 39.3 63 -2.4 27.8
14:30 1016 30 845 24.95 3.9 39 62 -2.8 27
14:35 1016 30 845 24.95 4.4 39.9 60 -2.6 27.3
14:40 1016 30 845 24.95 4.2 39.6 62 -2.3 27.8
14:45 1016 30 845 24.95 4.1 39.4 61 -2.7 27.1
14:50 1016 30 845 24.95 4.3 39.8 60 -2.7 27.2
14:55 1016 30 845 24.95 4.5 40.1 59 -2.8 27
15:00 1016 30 845 24.95 4.6 40.4 60 -2.5 27.5
15:05 1016 30 845 24.95 4.6 40.4 60 -2.4 27.7
15:10 1016 30 845 24.95 4.7 40.4 60 -2.4 27.6
15:15 1016 30 846 24.98 4.6 40.2 60 -2.5 27.4
15:20 1016 30 846 24.98 4.4 39.9 61 -2.4 27.7
15:25 1016 30 846 24.98 4.4 39.8 62 -2.3 27.9
15:30 1016 30 846 24.98 4.4 39.8 62 -2.2 28
15:35 1016 30 845 24.95 4.4 40 62 -2.2 28.1
15:40 1016 30 845 24.95 4.1 39.5 67 -1.5 29.4
15:45 1016 30 845 24.95 3.5 38.4 69 -1.7 29
15:50 1016 30 845 24.95 3.2 37.8 71 -1.4 29.4
15:55 1016 30 845 24.95 3.2 37.7 70 -1.8 28.8
16:00 1016 30 845 24.95 3.3 38 70 -1.6 29.2
16:05 1016 30 846 24.98 3.1 37.7 71 -1.6 29.1
16:10 1016 30 846 24.98 3.5 38.4 68 -1.8 28.8
16:15 1016 30 845 24.95 3.9 39 67 -1.8 28.8
16:20 1016 30 845 24.95 3.5 38.4 69 -1.5 29.2
16:25 1016 30 845 24.95 3.4 38.1 71 -1.4 29.5
16:30 1016 30 846 24.98 3 37.5 73 -1.4 29.5
16:35 1016 30 845 24.95 2.6 36.7 75 -1.4 29.4
16:40 1016 30 845 24.95 2.2 36 76 -1.5 29.3
16:45 1016 30 845 24.95 2.1 35.7 75 -1.8 28.7
16:50 1016 30 846 24.98 2.3 36.1 74 -1.9 28.6
16:55 1016 30 846 24.98 2.4 36.3 74 -1.8 28.8
17:00 1016 30 846 24.98 2.3 36.1 75 -1.8 28.8
17:05 1017 30.03 846 24.98 2.2 36 74 -2 28.5
17:10 1017 30.03 846 24.98 2.2 36 73 -2 28.3
17:15 1017 30.03 846 24.98 2.4 36.3 74 -1.9 28.7
17:20 1017 30.03 846 24.98 2.2 35.9 74 -1.9 28.5
17:25 1016 30 846 24.98 2.1 35.7 74 -2.1 28.1
17:30 1017 30.03 846 24.98 2 35.6 75 -2 28.3
17:35 1017 30.03 846 24.98 1.7 35.1 75 -2.2 28
17:40 1017 30.03 846 24.98 1.9 35.4 74 -2.2 28
17:45 1017 30.03 846 24.98 2.1 35.7 74 -2.1 28.2
17:50 1017 30.03 846 24.98 2.1 35.8 74 -2.1 28.2
17:55 1017 30.03 846 24.98 2.2 35.9 75 -1.8 28.7
18:00 1017 30.03 846 24.98 2 35.7 74 -2.1 28.3
18:05 1017 30.03 846 24.98 2.1 35.9 74 -2 28.4
18:10 1017 30.03 846 24.98 2 35.6 75 -1.9 28.5
18:15 1017 30.03 846 24.98 1.9 35.4 75 -2 28.3
18:20 1017 30.03 846 24.98 2.1 35.7 75 -1.9 28.6
18:25 1017 30.03 846 24.98 2.1 35.8 75 -1.9 28.6
18:30 1017 30.03 846 24.98 2.2 35.9 74 -2 28.5
18:35 1017 30.03 846 24.98 2.3 36.1 75 -1.8 28.8
18:40 1017 30.03 846 24.98 2.1 35.8 76 -1.6 29.2
18:45 1017 30.03 846 24.98 1.8 35.2 78 -1.6 29.1
18:50 1017 30.03 846 24.98 1.3 34.4 81 -1.6 29
18:55 1017 30.03 846 24.98 1 33.8 82 -1.8 28.8
19:00 1017 30.03 846 24.98 0.7 33.3 83 -1.9 28.5
19:05 1017 30.03 846 24.98 0.6 33 83 -2 28.5
19:10 1017 30.03 846 24.98 0.4 32.8 84 -2 28.4
19:15 1017 30.03 846 24.98 0.2 32.4 83 -2.3 27.9
19:20 1017 30.03 847 25.01 -0 31.9 82 -2.7 27.1
19:25 1017 30.03 847 25.01 -0.2 31.6 82 -2.9 26.8
19:30 1017 30.03 847 25.01 -0.4 31.3 81 -3.2 26.2
19:35 1017 30.03 847 25.01 -0.7 30.8 81 -3.4 25.8
19:40 1018 30.06 847 25.01 -0.8 30.5 82 -3.4 25.8
19:45 1018 30.06 847 25.01 -1 30.2 83 -3.5 25.8
19:50 1018 30.06 847 25.01 -1.2 29.8 84 -3.7 25.4
19:55 1018 30.06 847 25.01 -1.4 29.4 83 -4 24.8
20:00 1018 30.06 847 25.01 -1.6 29.2 83 -4 24.7
20:05 1018 30.06 847 25.01 -1.7 28.9 81 -4.5 23.9
20:10 1018 30.06 847 25.01 -2 28.4 82 -4.7 23.6
20:15 1018 30.06 847 25.01 -2.2 28 81 -5.1 22.9
20:20 1018 30.06 847 25.01 -2.7 27.2 82 -5.4 22.3
20:25 1018 30.06 848 25.04 -2.8 26.9 82 -5.5 22.1
20:30 1018 30.06 848 25.04 -2.9 26.7 81 -5.7 21.7
20:35 1019 30.09 848 25.04 -2.8 26.9 81 -5.7 21.8
20:40 1019 30.09 848 25.04 -2.8 26.9 81 -5.6 21.8
20:45 1019 30.09 848 25.04 -2.8 26.9 80 -5.8 21.6
20:50 1019 30.09 848 25.04 -2.9 26.7 80 -5.8 21.5
20:55 1019 30.09 848 25.04 -3.1 26.5 81 -5.8 21.5
21:00 1019 30.09 848 25.04 -3.1 26.5 81 -5.9 21.5
21:05 1019 30.09 848 25.04 -3 26.6 80 -6 21.2
21:10 1019 30.09 848 25.04 -3 26.6 80 -6 21.1
21:15 1019 30.09 848 25.04 -3.1 26.4 80 -6.1 21
21:20 1019 30.09 848 25.04 -3.4 25.9 80 -6.4 20.4
21:25 1019 30.09 848 25.04 -3.9 24.9 77 -7.3 18.8
21:30 1019 30.09 848 25.04 -4.8 23.4 80 -7.8 18
21:35 1019 30.09 848 25.04 -5.1 22.8 80 -8 17.5
21:40 1019 30.09 848 25.04 -5.2 22.7 80 -8.1 17.4
21:45 1019 30.09 848 25.04 -5.2 22.6 80 -8.2 17.2
21:50 1019 30.09 848 25.04 -5.5 22.2 81 -8.3 17.1
21:55 1019 30.09 848 25.04 -5.6 21.9 80 -8.5 16.7
22:00 1019 30.09 849 25.07 -5.8 21.6 80 -8.7 16.3
22:05 1019 30.09 849 25.07 -6 21.2 80 -8.9 15.9
22:10 1019 30.09 849 25.07 -6.2 20.9 80 -9.1 15.7
22:15 1020 30.12 849 25.07 -6.2 20.8 80 -9.2 15.5
22:20 1019 30.09 849 25.07 -6.4 20.5 80 -9.3 15.3
22:25 1020 30.12 849 25.07 -6.5 20.3 81 -9.3 15.3
22:30 1020 30.12 849 25.07 -6.5 20.3 80 -9.4 15
22:35 1020 30.12 849 25.07 -6.5 20.2 80 -9.4 15
22:40 1020 30.12 849 25.07 -6.6 20.2 80 -9.5 15
22:45 1020 30.12 849 25.07 -6.6 20 80 -9.6 14.7
22:50 1020 30.12 849 25.07 -6.8 19.8 80 -9.7 14.6
22:55 1020 30.12 849 25.07 -6.9 19.6 80 -9.8 14.4
23:00 1020 30.12 849 25.07 -7 19.4 80 -9.9 14.2
23:05 1020 30.12 849 25.07 -7.1 19.1 81 -9.9 14.2
23:10 1020 30.12 849 25.07 -7.2 19.1 81 -9.8 14.3
23:15 1020 30.12 850 25.1 -7.2 19 81 -9.9 14.2
23:20 1020 30.12 850 25.1 -7.4 18.7 82 -9.9 14.2
23:25 1020 30.12 850 25.1 -7.4 18.7 82 -9.9 14.2
23:30 1020 30.12 850 25.1 -7.4 18.7 83 -9.9 14.2
23:35 1020 30.12 850 25.1 -7.4 18.6 83 -9.9 14.2
23:40 1021 30.15 850 25.1 -7.5 18.6 83 -9.9 14.1
23:45 1021 30.15 850 25.1 -7.5 18.4 83 -10 14.1
23:50 1021 30.15 850 25.1 -7.6 18.4 83 -10 14.1
23:55 1021 30.15 850 25.1 -7.6 18.4 83 -10 14
24:00 1021 30.15 850 25.1 -7.6 18.4 83 -10 13.9